Stations météo

réclame
Mon MeteoGroup
Villardeciervos, Espagne (8125): Température de l'air & dewpoint: 13.10.2018 11:00:00 - 19.10.2018 11:00:00 (CEST)Villardeciervos, Espagne (8125): Vitesse du vent & gusts: 13.10.2018 11:00:00 - 19.10.2018 11:00:00 (CEST)Villardeciervos, Espagne (8125): Direction du vent: 13.10.2018 11:00:00 - 19.10.2018 11:00:00 (CEST)Villardeciervos, Espagne (8125): visibility: 13.10.2018 11:00:00 - 19.10.2018 11:00:00 (CEST)Villardeciervos, Espagne (8125): Ensoleillement: 13.10.2018 11:00:00 - 19.10.2018 11:00:00 (CEST)Villardeciervos, Espagne (8125): Quantités de précipitations: 13.10.2018 11:00:00 - 19.10.2018 11:00:00 (CEST)
Date & Time tt [°C] td [°C] ff [km/h] ff [knt] fx [km/h] fx [knt] dd vv [km] sd [min] rr [mm]
19.10.2018 11:00:00 - - - - - - - - - -
19.10.2018 10:00:00 12,7 5,8 6 4 16 9 E 20 11 0,0
19.10.2018 09:00:00 11,3 5,6 6 4 24 13 ENE 20 0 0,0
19.10.2018 08:00:00 12,4 6,4 5 3 17 9 E 20 0 -
19.10.2018 07:00:00 12,6 6,4 7 4 21 11 NE 20 0 0,0
19.10.2018 06:00:00 11,9 7,3 6 3 13 7 ENE 20 0 0,0
19.10.2018 05:00:00 11,5 7,3 4 2 10 5 E 20 0 0,0
19.10.2018 04:00:00 11,4 7,3 6 4 13 7 ENE 20 0 0,0
19.10.2018 03:00:00 10,1 7,1 4 2 8 5 E 20 0 0,0
19.10.2018 02:00:00 9,3 6,2 4 2 13 7 ESE 20 0 -
19.10.2018 01:00:00 10,4 6,7 3 1 9 5 ESE 20 0 0,0
19.10.2018 00:00:00 11,6 6,7 5 3 16 9 ENE 20 0 0,0
18.10.2018 23:00:00 12,3 6,8 6 3 23 12 NE 20 0 0,0
18.10.2018 22:00:00 13,2 6,7 10 5 24 13 NNE 20 0 0,0
18.10.2018 21:00:00 14,5 7,3 6 3 18 10 NE 20 0 0,0
18.10.2018 20:00:00 15,4 7,4 7 4 29 16 NNE 20 0 -
18.10.2018 19:00:00 17,5 7,6 13 7 32 17 NE 20 44 0,0
18.10.2018 18:00:00 19,0 6,1 15 8 42 23 ENE 20 59 0,0
18.10.2018 17:00:00 19,8 6,5 18 10 42 23 ENE 20 59 0,0
18.10.2018 16:00:00 19,4 6,8 18 10 40 21 ENE 20 59 0,0
18.10.2018 15:00:00 18,9 7,7 17 9 41 22 E 20 60 0,0
18.10.2018 14:00:00 16,6 8,8 14 7 44 24 ENE 20 39 -
18.10.2018 13:00:00 16,9 8,8 19 10 39 21 ENE 20 54 0,0
18.10.2018 12:00:00 16,2 8,7 16 8 36 20 NE 20 60 0,0
18.10.2018 11:00:00 14,6 9,8 8 4 19 11 NE 20 60 0,0
18.10.2018 10:00:00 12,4 9,4 3 2 8 4 E 20 27 0,0
18.10.2018 09:00:00 10,1 8,7 3 2 14 8 ENE 16 0 0,0
18.10.2018 08:00:00 9,9 8,7 4 2 10 5 NNE 5 0 -
18.10.2018 07:00:00 10,0 8,7 2 1 8 4 ENE 6 0 0,0
18.10.2018 06:00:00 9,9 8,5 3 2 13 7 NNE 7 0 0,0
18.10.2018 05:00:00 10,1 8,5 7 4 14 8 NNE 7 0 0,0
18.10.2018 04:00:00 10,5 8,9 4 2 9 5 NE 12 0 0,6
18.10.2018 03:00:00 10,7 8,8 3 1 14 8 NNE 4,1 0 1,4
18.10.2018 02:00:00 11,0 8,3 4 2 9 5 E 20 0 -
18.10.2018 01:00:00 11,1 8,5 3 2 10 5 SE 20 0 0,0
18.10.2018 00:00:00 11,2 8,4 4 2 6 4 S 20 0 0,0
17.10.2018 23:00:00 11,8 8,7 3 2 9 5 W 20 0 0,0
17.10.2018 22:00:00 12,3 8,8 3 2 11 6 W 20 0 0,0
17.10.2018 21:00:00 12,9 8,1 6 3 14 7 WNW 20 0 0,0
17.10.2018 20:00:00 13,4 8,3 4 2 14 8 WSW 20 0 -
17.10.2018 19:00:00 14,0 8,1 7 4 19 11 SW 20 0 0,0
17.10.2018 18:00:00 14,6 7,8 10 6 23 12 SW 20 0 0,0
17.10.2018 17:00:00 15,0 8,0 11 6 24 13 SW 20 20 0,0
17.10.2018 16:00:00 16,3 8,0 10 6 23 12 SSW 20 44 0,0
17.10.2018 15:00:00 16,5 8,0 10 5 26 14 SSW 19 53 0,0
17.10.2018 14:00:00 15,4 8,7 9 5 23 12 WSW 20 41 -
17.10.2018 13:00:00 14,1 8,5 9 5 17 9 WSW 20 41 0,0
17.10.2018 12:00:00 13,3 9,3 3 2 7 4 N 20 60 0,0
17.10.2018 11:00:00 8,8 7,4 2 1 4 2 E 20 60 0,0
17.10.2018 10:00:00 5,3 4,4 1 1 5 3 ESE - 29 0,0
17.10.2018 09:00:00 2,6 1,7 0 0 5 3 N 0,1 0 0,0
17.10.2018 08:00:00 2,9 2,1 5 3 7 4 SSE 0,3 0 -
17.10.2018 07:00:00 1,8 0,9 2 1 4 2 S 0,1 0 0,0
17.10.2018 06:00:00 1,7 0,6 5 3 7 4 SSE 0,7 0 0,0
17.10.2018 05:00:00 3,3 2,3 3 2 6 3 NNW 0,5 0 0,0
17.10.2018 04:00:00 3,2 2,1 0 0 5 3 N 20 0 0,0
17.10.2018 03:00:00 4,0 2,9 2 1 7 4 SSE 16 0 0,0
17.10.2018 02:00:00 4,2 2,7 4 2 5 3 NW 16 0 -
17.10.2018 01:00:00 5,5 3,9 2 1 7 4 WNW 20 0 0,0
17.10.2018 00:00:00 5,8 4,1 4 2 7 4 SSE 18 0 0,0
16.10.2018 23:00:00 7,6 5,9 3 2 11 6 SSW 20 0 0,0
16.10.2018 22:00:00 8,0 5,9 7 4 11 6 SSE 20 0 0,0
16.10.2018 21:00:00 9,5 6,7 4 2 13 7 ESE 20 0 0,0
16.10.2018 20:00:00 12,2 7,7 7 4 13 7 SW 20 0 -
16.10.2018 19:00:00 16,1 7,8 4 2 9 5 WSW 7 55 0,0
16.10.2018 18:00:00 17,6 7,6 3 1 11 6 NW 20 60 0,0
16.10.2018 17:00:00 16,5 8,0 4 2 11 6 W 20 59 0,0
16.10.2018 16:00:00 14,6 7,6 3 1 13 7 ESE 20 14 0,0
16.10.2018 15:00:00 13,8 7,3 3 1 13 7 NNE 20 2 0,0
16.10.2018 14:00:00 13,4 7,4 5 3 13 7 NW 20 7 -
16.10.2018 13:00:00 11,9 7,3 4 2 16 8 NNE 20 1 0,0
16.10.2018 12:00:00 10,4 7,1 5 3 13 7 N 20 0 0,0
16.10.2018 11:00:00 9,3 6,7 4 2 18 10 ENE 20 0 0,0
16.10.2018 10:00:00 8,5 6,7 4 2 11 6 NNE 20 0 0,0
16.10.2018 09:00:00 8,1 6,4 4 2 9 5 N 19 0 0,0
16.10.2018 08:00:00 8,0 6,2 3 2 6 4 N 20 0 -
16.10.2018 07:00:00 8,0 6,1 3 2 8 5 N 20 0 0,0
16.10.2018 06:00:00 8,1 6,2 4 2 9 5 NNE 20 0 0,0
16.10.2018 05:00:00 8,2 6,4 2 1 7 4 NE 20 0 0,0
16.10.2018 04:00:00 8,2 6,4 3 2 8 4 N 20 0 0,0
16.10.2018 03:00:00 8,2 6,4 3 2 11 6 NE 20 0 0,0
16.10.2018 02:00:00 8,3 6,4 2 1 7 4 NNE 20 0 -
16.10.2018 01:00:00 8,4 6,5 2 1 10 5 E 20 0 0,0
16.10.2018 00:00:00 8,6 6,8 2 1 7 4 E 20 0 0,0
15.10.2018 23:00:00 9,0 7,4 2 1 5 3 ENE 20 0 0,0
15.10.2018 22:00:00 8,9 7,1 1 1 4 2 S 20 0 0,0
15.10.2018 21:00:00 8,8 7,3 2 1 7 4 ENE 20 0 0,0
15.10.2018 20:00:00 9,3 7,4 3 1 6 4 SSE 20 0 -
15.10.2018 19:00:00 9,3 7,4 4 2 15 8 ENE 20 0 0,0
15.10.2018 18:00:00 9,8 7,7 6 3 16 9 NNE 20 0 0,0
15.10.2018 17:00:00 9,8 7,8 7 4 14 7 ENE 9 0 0,2
15.10.2018 16:00:00 9,9 8,0 6 3 14 8 ENE 4,4 0 0,0
15.10.2018 15:00:00 9,6 8,0 6 3 18 10 ENE 4,6 0 0,4
15.10.2018 14:00:00 9,5 7,6 6 4 15 8 NE 1,9 0 -
15.10.2018 13:00:00 8,8 7,1 5 3 16 9 ENE 3,8 0 0,0
15.10.2018 12:00:00 8,3 6,4 5 3 16 9 ENE 4,5 0 0,2
15.10.2018 11:00:00 7,4 5,9 5 3 13 7 S 7 0 0,4
15.10.2018 10:00:00 6,6 5,3 3 2 9 5 NNE 3,4 0 2,8
15.10.2018 09:00:00 6,3 4,8 3 2 8 4 E 3,0 0 0,8
15.10.2018 08:00:00 6,5 4,6 4 2 10 5 E 2,5 0 -
15.10.2018 07:00:00 6,8 3,9 3 2 13 7 SSW 20 0 0,0
15.10.2018 06:00:00 7,0 3,9 7 4 22 12 W 20 0 0,0
15.10.2018 05:00:00 7,4 4,1 12 7 29 16 WSW 20 0 0,0
15.10.2018 04:00:00 7,8 3,4 16 9 30 16 WSW 20 0 0,0
15.10.2018 03:00:00 7,8 3,6 11 6 30 16 WSW 20 0 0,0
15.10.2018 02:00:00 7,9 4,6 7 4 27 15 SW 20 0 -
15.10.2018 01:00:00 8,0 3,9 12 7 33 18 WSW 20 0 0,0
15.10.2018 00:00:00 7,9 2,5 14 7 21 12 SW 20 0 0,0
14.10.2018 23:00:00 8,1 1,9 10 5 20 11 SW 20 0 0,0
14.10.2018 22:00:00 8,5 1,7 7 4 21 11 WSW 20 0 0,0
14.10.2018 21:00:00 8,8 2,7 3 2 19 10 S 20 0 0,0
14.10.2018 20:00:00 11,0 3,2 9 5 22 12 W 20 0 -
14.10.2018 19:00:00 13,8 2,7 8 5 21 11 WNW 20 28 0,0
14.10.2018 18:00:00 15,9 2,7 4 2 22 12 N 20 25 0,0
14.10.2018 17:00:00 15,4 3,6 9 5 27 15 N 20 31 0,0
14.10.2018 16:00:00 16,3 2,3 6 3 18 10 N 20 12 0,0
14.10.2018 15:00:00 17,1 2,3 8 4 23 12 NNE 20 27 0,0
14.10.2018 14:00:00 14,7 1,9 11 6 30 16 NW 20 8 -
14.10.2018 13:00:00 12,7 2,3 8 5 21 12 W 20 2 0,0
14.10.2018 12:00:00 12,6 1,3 4 2 35 19 ESE 20 55 0,0
14.10.2018 11:00:00 10,5 0,4 18 10 37 20 NW - 0 0,0
14.10.2018 10:00:00 8,8 2,1 14 8 27 15 W 20 0 0,0
14.10.2018 09:00:00 8,3 1,9 10 6 27 14 W 20 0 0,0
14.10.2018 08:00:00 8,9 2,1 17 9 37 20 W 20 0 -
14.10.2018 07:00:00 9,6 4,5 18 10 36 20 WSW 20 0 0,0
14.10.2018 06:00:00 9,7 7,1 21 12 52 28 SW 20 0 0,0
14.10.2018 05:00:00 11,2 8,3 29 15 66 36 SSW 20 0 0,0
14.10.2018 04:00:00 14,4 9,2 27 15 87 47 S 20 0 0,0
14.10.2018 03:00:00 15,7 10,3 34 18 65 35 SSE 20 0 0,0
14.10.2018 02:00:00 16,7 10,5 18 10 54 29 S 20 0 -
14.10.2018 01:00:00 19,1 8,7 22 12 44 24 SSE 20 0 0,0
14.10.2018 00:00:00 19,3 8,9 24 13 45 24 SSE 20 0 0,0
13.10.2018 23:00:00 19,1 10,4 15 8 34 19 SSE 20 0 0,0
13.10.2018 22:00:00 19,0 10,8 13 7 24 13 S 20 0 0,0
13.10.2018 21:00:00 18,9 10,8 10 5 24 13 S 20 0 0,0
13.10.2018 20:00:00 20,4 10,2 9 5 21 12 SSW 20 0 -
13.10.2018 19:00:00 22,1 9,9 12 6 34 18 SSW 20 36 0,0
13.10.2018 18:00:00 23,1 9,2 14 7 32 18 SSW 20 39 0,0
13.10.2018 17:00:00 24,1 7,7 14 7 37 20 S 20 30 0,0
13.10.2018 16:00:00 23,5 9,4 13 7 42 23 S 20 36 0,0
13.10.2018 15:00:00 23,4 10,8 17 9 35 19 S 20 48 0,0
13.10.2018 14:00:00 - - - - - - - - - -
13.10.2018 13:00:00 20,4 11,9 16 8 37 20 S 20 59 0,0
13.10.2018 12:00:00 18,6 12,3 11 6 28 15 SW 20 53 0,0
13.10.2018 11:00:00 16,9 12,2 6 3 18 10 SW 20 47 0,0

tt = Température de l'air
td = dewpoint
ff = Vitesse du vent
fx = gusts
dd = Direction du vent
vv = visibility
sd = Ensoleillement
rr = Quantités de précipitations

stations d'obs. à proximité